sensor_id;sensor_type;location;lat;lon;timestamp;P1;durP1;ratioP1;P2;durP2;ratioP2
42632;SDS011;28261;53.304;-6.284;2023-10-09T00:01:43;5.85;;;2.80;;
42632;SDS011;28261;53.304;-6.284;2023-10-09T00:03:48;6.55;;;2.75;;
42632;SDS011;28261;53.304;-6.284;2023-10-09T00:05:55;6.43;;;2.90;;
42632;SDS011;28261;53.304;-6.284;2023-10-09T00:07:59;9.18;;;3.17;;
42632;SDS011;28261;53.304;-6.284;2023-10-09T00:10:05;6.60;;;2.90;;
42632;SDS011;28261;53.304;-6.284;2023-10-09T00:12:16;6.95;;;2.92;;
42632;SDS011;28261;53.304;-6.284;2023-10-09T00:14:25;9.15;;;3.05;;
42632;SDS011;28261;53.304;-6.284;2023-10-09T00:16:32;6.28;;;3.22;;
42632;SDS011;28261;53.304;-6.284;2023-10-09T00:18:37;6.03;;;3.33;;
42632;SDS011;28261;53.304;-6.284;2023-10-09T00:20:40;7.32;;;3.22;;
42632;SDS011;28261;53.304;-6.284;2023-10-09T00:22:44;6.20;;;3.10;;
42632;SDS011;28261;53.304;-6.284;2023-10-09T00:24:48;7.72;;;3.65;;
42632;SDS011;28261;53.304;-6.284;2023-10-09T00:27:02;7.60;;;3.65;;
42632;SDS011;28261;53.304;-6.284;2023-10-09T00:29:16;6.13;;;3.40;;
42632;SDS011;28261;53.304;-6.284;2023-10-09T00:31:25;5.85;;;2.70;;
42632;SDS011;28261;53.304;-6.284;2023-10-09T00:33:35;5.20;;;2.95;;
42632;SDS011;28261;53.304;-6.284;2023-10-09T00:35:39;7.70;;;2.90;;
42632;SDS011;28261;53.304;-6.284;2023-10-09T00:37:56;8.50;;;2.70;;
42632;SDS011;28261;53.304;-6.284;2023-10-09T00:40:08;7.70;;;2.70;;
42632;SDS011;28261;53.304;-6.284;2023-10-09T00:44:35;7.57;;;2.85;;
42632;SDS011;28261;53.304;-6.284;2023-10-09T00:46:43;8.32;;;3.53;;
42632;SDS011;28261;53.304;-6.284;2023-10-09T00:48:49;8.43;;;2.83;;
42632;SDS011;28261;53.304;-6.284;2023-10-09T00:50:55;6.63;;;3.60;;
42632;SDS011;28261;53.304;-6.284;2023-10-09T00:53:02;9.27;;;3.03;;
42632;SDS011;28261;53.304;-6.284;2023-10-09T00:55:14;6.70;;;2.75;;
42632;SDS011;28261;53.304;-6.284;2023-10-09T00:57:22;7.00;;;3.00;;
42632;SDS011;28261;53.304;-6.284;2023-10-09T00:59:26;8.13;;;2.63;;
42632;SDS011;28261;53.304;-6.284;2023-10-09T01:01:34;7.22;;;3.00;;
42632;SDS011;28261;53.304;-6.284;2023-10-09T01:03:40;7.22;;;3.15;;
42632;SDS011;28261;53.304;-6.284;2023-10-09T01:05:47;5.57;;;2.88;;
42632;SDS011;28261;53.304;-6.284;2023-10-09T01:07:54;6.35;;;2.83;;
42632;SDS011;28261;53.304;-6.284;2023-10-09T01:10:00;5.28;;;3.00;;
42632;SDS011;28261;53.304;-6.284;2023-10-09T01:12:13;6.38;;;2.92;;
42632;SDS011;28261;53.304;-6.284;2023-10-09T01:14:21;7.78;;;2.92;;
42632;SDS011;28261;53.304;-6.284;2023-10-09T01:16:25;6.85;;;2.92;;
42632;SDS011;28261;53.304;-6.284;2023-10-09T01:18:34;6.68;;;2.88;;
42632;SDS011;28261;53.304;-6.284;2023-10-09T01:20:39;4.95;;;2.58;;
42632;SDS011;28261;53.304;-6.284;2023-10-09T01:22:47;6.32;;;2.90;;
42632;SDS011;28261;53.304;-6.284;2023-10-09T01:24:54;7.90;;;3.22;;
42632;SDS011;28261;53.304;-6.284;2023-10-09T01:26:58;5.60;;;2.80;;
42632;SDS011;28261;53.304;-6.284;2023-10-09T01:29:06;6.32;;;3.10;;
42632;SDS011;28261;53.304;-6.284;2023-10-09T01:31:12;6.38;;;2.55;;
42632;SDS011;28261;53.304;-6.284;2023-10-09T01:33:16;4.38;;;2.63;;
42632;SDS011;28261;53.304;-6.284;2023-10-09T01:35:29;6.55;;;3.00;;
42632;SDS011;28261;53.304;-6.284;2023-10-09T01:37:35;6.30;;;3.20;;
42632;SDS011;28261;53.304;-6.284;2023-10-09T01:39:40;6.68;;;3.20;;
42632;SDS011;28261;53.304;-6.284;2023-10-09T01:41:46;5.70;;;3.05;;
42632;SDS011;28261;53.304;-6.284;2023-10-09T01:43:49;6.22;;;3.40;;
42632;SDS011;28261;53.304;-6.284;2023-10-09T01:45:54;8.00;;;3.08;;
42632;SDS011;28261;53.304;-6.284;2023-10-09T01:47:57;5.10;;;2.80;;
42632;SDS011;28261;53.304;-6.284;2023-10-09T01:50:07;7.88;;;3.10;;
42632;SDS011;28261;53.304;-6.284;2023-10-09T01:52:23;6.20;;;3.05;;
42632;SDS011;28261;53.304;-6.284;2023-10-09T01:54:26;6.95;;;3.30;;
42632;SDS011;28261;53.304;-6.284;2023-10-09T01:56:38;8.82;;;3.30;;
42632;SDS011;28261;53.304;-6.284;2023-10-09T01:58:49;7.47;;;3.80;;
42632;SDS011;28261;53.304;-6.284;2023-10-09T02:00:55;6.32;;;3.35;;
42632;SDS011;28261;53.304;-6.284;2023-10-09T02:03:04;5.80;;;2.97;;
42632;SDS011;28261;53.304;-6.284;2023-10-09T02:05:14;6.85;;;3.15;;
42632;SDS011;28261;53.304;-6.284;2023-10-09T02:07:27;6.32;;;3.33;;
42632;SDS011;28261;53.304;-6.284;2023-10-09T02:09:35;8.73;;;3.70;;
42632;SDS011;28261;53.304;-6.284;2023-10-09T02:11:46;10.00;;;4.13;;
42632;SDS011;28261;53.304;-6.284;2023-10-09T02:13:54;8.38;;;3.55;;
42632;SDS011;28261;53.304;-6.284;2023-10-09T02:16:03;6.85;;;3.13;;
42632;SDS011;28261;53.304;-6.284;2023-10-09T02:18:17;7.88;;;3.50;;
42632;SDS011;28261;53.304;-6.284;2023-10-09T02:20:29;7.72;;;3.42;;
42632;SDS011;28261;53.304;-6.284;2023-10-09T02:22:33;6.15;;;3.00;;
42632;SDS011;28261;53.304;-6.284;2023-10-09T02:24:36;7.70;;;3.17;;
42632;SDS011;28261;53.304;-6.284;2023-10-09T02:26:54;8.30;;;3.60;;
42632;SDS011;28261;53.304;-6.284;2023-10-09T02:29:11;6.10;;;3.03;;
42632;SDS011;28261;53.304;-6.284;2023-10-09T02:31:20;6.82;;;3.08;;
42632;SDS011;28261;53.304;-6.284;2023-10-09T02:33:25;5.80;;;3.33;;
42632;SDS011;28261;53.304;-6.284;2023-10-09T02:35:30;6.82;;;3.25;;
42632;SDS011;28261;53.304;-6.284;2023-10-09T02:37:40;7.88;;;3.30;;
42632;SDS011;28261;53.304;-6.284;2023-10-09T02:39:43;6.60;;;3.55;;
42632;SDS011;28261;53.304;-6.284;2023-10-09T02:41:50;8.38;;;4.13;;
42632;SDS011;28261;53.304;-6.284;2023-10-09T02:43:52;7.35;;;3.47;;
42632;SDS011;28261;53.304;-6.284;2023-10-09T02:45:58;10.27;;;3.42;;
42632;SDS011;28261;53.304;-6.284;2023-10-09T02:48:15;6.93;;;3.22;;
42632;SDS011;28261;53.304;-6.284;2023-10-09T02:50:21;8.77;;;3.20;;
42632;SDS011;28261;53.304;-6.284;2023-10-09T02:52:30;6.00;;;3.13;;
42632;SDS011;28261;53.304;-6.284;2023-10-09T02:54:43;7.55;;;3.35;;
42632;SDS011;28261;53.304;-6.284;2023-10-09T02:56:49;9.57;;;3.58;;
42632;SDS011;28261;53.304;-6.284;2023-10-09T02:58:58;7.07;;;2.97;;
42632;SDS011;28261;53.304;-6.284;2023-10-09T03:01:13;7.57;;;2.88;;
42632;SDS011;28261;53.304;-6.284;2023-10-09T03:03:17;7.88;;;3.78;;
42632;SDS011;28261;53.304;-6.284;2023-10-09T03:05:23;6.63;;;3.17;;
42632;SDS011;28261;53.304;-6.284;2023-10-09T03:07:29;6.20;;;2.95;;
42632;SDS011;28261;53.304;-6.284;2023-10-09T03:09:32;7.25;;;3.55;;
42632;SDS011;28261;53.304;-6.284;2023-10-09T03:11:37;7.60;;;3.28;;
42632;SDS011;28261;53.304;-6.284;2023-10-09T03:13:40;7.03;;;3.28;;
42632;SDS011;28261;53.304;-6.284;2023-10-09T03:15:47;8.20;;;3.13;;
42632;SDS011;28261;53.304;-6.284;2023-10-09T03:17:55;8.07;;;3.17;;
42632;SDS011;28261;53.304;-6.284;2023-10-09T03:19:58;7.28;;;3.22;;
42632;SDS011;28261;53.304;-6.284;2023-10-09T03:22:02;5.25;;;3.38;;
42632;SDS011;28261;53.304;-6.284;2023-10-09T03:24:07;10.05;;;3.55;;
42632;SDS011;28261;53.304;-6.284;2023-10-09T03:26:10;7.03;;;3.15;;
42632;SDS011;28261;53.304;-6.284;2023-10-09T03:31:21;9.23;;;3.97;;
42632;SDS011;28261;53.304;-6.284;2023-10-09T03:33:27;7.25;;;3.35;;
42632;SDS011;28261;53.304;-6.284;2023-10-09T03:35:35;8.48;;;3.70;;
42632;SDS011;28261;53.304;-6.284;2023-10-09T03:37:40;6.35;;;3.13;;
42632;SDS011;28261;53.304;-6.284;2023-10-09T03:39:44;7.95;;;3.60;;
42632;SDS011;28261;53.304;-6.284;2023-10-09T03:41:49;8.60;;;3.20;;
42632;SDS011;28261;53.304;-6.284;2023-10-09T03:43:53;7.28;;;3.28;;
42632;SDS011;28261;53.304;-6.284;2023-10-09T03:45:57;6.82;;;3.00;;
42632;SDS011;28261;53.304;-6.284;2023-10-09T03:48:01;11.45;;;4.18;;
42632;SDS011;28261;53.304;-6.284;2023-10-09T03:50:13;5.80;;;2.67;;
42632;SDS011;28261;53.304;-6.284;2023-10-09T03:52:29;8.27;;;3.35;;
42632;SDS011;28261;53.304;-6.284;2023-10-09T03:54:33;7.80;;;2.90;;
42632;SDS011;28261;53.304;-6.284;2023-10-09T03:56:40;6.05;;;3.08;;
42632;SDS011;28261;53.304;-6.284;2023-10-09T03:58:46;10.13;;;3.05;;
42632;SDS011;28261;53.304;-6.284;2023-10-09T04:00:53;5.95;;;3.15;;
42632;SDS011;28261;53.304;-6.284;2023-10-09T04:02:57;11.45;;;3.22;;
42632;SDS011;28261;53.304;-6.284;2023-10-09T04:05:02;8.32;;;3.40;;
42632;SDS011;28261;53.304;-6.284;2023-10-09T04:07:11;8.90;;;3.25;;
42632;SDS011;28261;53.304;-6.284;2023-10-09T04:09:18;7.70;;;3.25;;
42632;SDS011;28261;53.304;-6.284;2023-10-09T04:11:42;6.72;;;3.05;;
42632;SDS011;28261;53.304;-6.284;2023-10-09T04:13:49;7.55;;;3.40;;
42632;SDS011;28261;53.304;-6.284;2023-10-09T04:15:54;9.00;;;3.58;;
42632;SDS011;28261;53.304;-6.284;2023-10-09T04:17:57;7.15;;;3.45;;
42632;SDS011;28261;53.304;-6.284;2023-10-09T04:20:03;10.48;;;3.40;;
42632;SDS011;28261;53.304;-6.284;2023-10-09T04:22:35;7.28;;;3.45;;
42632;SDS011;28261;53.304;-6.284;2023-10-09T04:24:42;7.43;;;3.45;;
42632;SDS011;28261;53.304;-6.284;2023-10-09T04:26:52;9.68;;;3.60;;
42632;SDS011;28261;53.304;-6.284;2023-10-09T04:29:04;8.30;;;3.63;;
42632;SDS011;28261;53.304;-6.284;2023-10-09T04:31:08;7.32;;;3.50;;
42632;SDS011;28261;53.304;-6.284;2023-10-09T04:33:16;7.93;;;3.42;;
42632;SDS011;28261;53.304;-6.284;2023-10-09T04:35:30;7.63;;;3.45;;
42632;SDS011;28261;53.304;-6.284;2023-10-09T04:37:37;9.48;;;4.60;;
42632;SDS011;28261;53.304;-6.284;2023-10-09T04:39:40;8.57;;;3.90;;
42632;SDS011;28261;53.304;-6.284;2023-10-09T04:41:49;6.45;;;3.00;;
42632;SDS011;28261;53.304;-6.284;2023-10-09T04:44:16;6.38;;;3.20;;
42632;SDS011;28261;53.304;-6.284;2023-10-09T04:46:25;6.18;;;2.90;;
42632;SDS011;28261;53.304;-6.284;2023-10-09T04:48:29;7.20;;;3.47;;
42632;SDS011;28261;53.304;-6.284;2023-10-09T04:50:41;6.32;;;3.83;;
42632;SDS011;28261;53.304;-6.284;2023-10-09T04:53:06;7.90;;;3.53;;
42632;SDS011;28261;53.304;-6.284;2023-10-09T04:55:25;6.72;;;3.28;;
42632;SDS011;28261;53.304;-6.284;2023-10-09T04:57:31;10.05;;;3.40;;
42632;SDS011;28261;53.304;-6.284;2023-10-09T04:59:41;7.82;;;3.40;;
42632;SDS011;28261;53.304;-6.284;2023-10-09T05:01:50;7.47;;;4.00;;
42632;SDS011;28261;53.304;-6.284;2023-10-09T05:04:01;7.50;;;3.70;;
42632;SDS011;28261;53.304;-6.284;2023-10-09T05:06:06;10.02;;;3.50;;
42632;SDS011;28261;53.304;-6.284;2023-10-09T05:08:36;9.10;;;4.00;;
42632;SDS011;28261;53.304;-6.284;2023-10-09T05:10:48;7.88;;;3.95;;
42632;SDS011;28261;53.304;-6.284;2023-10-09T05:13:07;6.97;;;3.53;;
42632;SDS011;28261;53.304;-6.284;2023-10-09T05:15:15;5.80;;;3.10;;
42632;SDS011;28261;53.304;-6.284;2023-10-09T05:17:20;8.52;;;3.33;;
42632;SDS011;28261;53.304;-6.284;2023-10-09T05:19:28;11.15;;;3.38;;
42632;SDS011;28261;53.304;-6.284;2023-10-09T05:23:52;8.30;;;3.70;;
42632;SDS011;28261;53.304;-6.284;2023-10-09T05:26:11;6.47;;;3.60;;
42632;SDS011;28261;53.304;-6.284;2023-10-09T05:28:39;6.18;;;3.10;;
42632;SDS011;28261;53.304;-6.284;2023-10-09T05:30:55;9.20;;;3.05;;
42632;SDS011;28261;53.304;-6.284;2023-10-09T05:33:08;7.53;;;3.30;;
42632;SDS011;28261;53.304;-6.284;2023-10-09T05:35:34;7.13;;;3.85;;
42632;SDS011;28261;53.304;-6.284;2023-10-09T05:38:08;6.68;;;4.10;;
42632;SDS011;28261;53.304;-6.284;2023-10-09T05:40:27;7.93;;;3.70;;
42632;SDS011;28261;53.304;-6.284;2023-10-09T05:42:37;6.60;;;3.63;;
42632;SDS011;28261;53.304;-6.284;2023-10-09T05:44:45;8.10;;;4.22;;
42632;SDS011;28261;53.304;-6.284;2023-10-09T05:47:08;7.93;;;3.80;;
42632;SDS011;28261;53.304;-6.284;2023-10-09T05:49:30;8.23;;;4.13;;
42632;SDS011;28261;53.304;-6.284;2023-10-09T05:51:48;7.68;;;4.15;;
42632;SDS011;28261;53.304;-6.284;2023-10-09T05:53:55;10.25;;;4.18;;
42632;SDS011;28261;53.304;-6.284;2023-10-09T05:56:15;7.18;;;3.53;;
42632;SDS011;28261;53.304;-6.284;2023-10-09T05:58:36;9.07;;;4.10;;
42632;SDS011;28261;53.304;-6.284;2023-10-09T06:01:17;8.45;;;4.28;;
42632;SDS011;28261;53.304;-6.284;2023-10-09T06:03:38;9.23;;;3.90;;
42632;SDS011;28261;53.304;-6.284;2023-10-09T06:05:51;7.20;;;3.60;;
42632;SDS011;28261;53.304;-6.284;2023-10-09T06:08:06;8.52;;;3.90;;
42632;SDS011;28261;53.304;-6.284;2023-10-09T06:10:12;13.45;;;6.60;;
42632;SDS011;28261;53.304;-6.284;2023-10-09T06:12:31;9.23;;;4.80;;
42632;SDS011;28261;53.304;-6.284;2023-10-09T06:14:56;9.13;;;3.60;;
42632;SDS011;28261;53.304;-6.284;2023-10-09T06:17:21;9.32;;;4.35;;
42632;SDS011;28261;53.304;-6.284;2023-10-09T06:19:25;7.90;;;3.75;;
42632;SDS011;28261;53.304;-6.284;2023-10-09T06:21:30;7.82;;;4.50;;
42632;SDS011;28261;53.304;-6.284;2023-10-09T06:23:42;7.07;;;4.35;;
42632;SDS011;28261;53.304;-6.284;2023-10-09T06:26:11;8.57;;;3.63;;
42632;SDS011;28261;53.304;-6.284;2023-10-09T06:28:28;8.15;;;4.10;;
42632;SDS011;28261;53.304;-6.284;2023-10-09T06:30:36;9.90;;;3.83;;
42632;SDS011;28261;53.304;-6.284;2023-10-09T06:32:46;12.10;;;3.88;;
42632;SDS011;28261;53.304;-6.284;2023-10-09T06:35:00;7.70;;;3.97;;
42632;SDS011;28261;53.304;-6.284;2023-10-09T06:37:20;8.75;;;4.15;;
42632;SDS011;28261;53.304;-6.284;2023-10-09T06:39:40;9.85;;;4.40;;
42632;SDS011;28261;53.304;-6.284;2023-10-09T06:42:01;9.02;;;5.18;;
42632;SDS011;28261;53.304;-6.284;2023-10-09T06:44:15;8.90;;;4.63;;
42632;SDS011;28261;53.304;-6.284;2023-10-09T06:46:40;7.60;;;4.13;;
42632;SDS011;28261;53.304;-6.284;2023-10-09T06:48:54;9.48;;;4.20;;
42632;SDS011;28261;53.304;-6.284;2023-10-09T06:51:01;9.57;;;4.53;;
42632;SDS011;28261;53.304;-6.284;2023-10-09T06:53:09;12.55;;;4.05;;
42632;SDS011;28261;53.304;-6.284;2023-10-09T06:55:27;8.45;;;4.28;;
42632;SDS011;28261;53.304;-6.284;2023-10-09T06:57:39;10.13;;;4.28;;
42632;SDS011;28261;53.304;-6.284;2023-10-09T06:59:52;11.35;;;5.05;;
42632;SDS011;28261;53.304;-6.284;2023-10-09T07:02:31;12.40;;;4.47;;
42632;SDS011;28261;53.304;-6.284;2023-10-09T07:04:49;10.82;;;5.35;;
42632;SDS011;28261;53.304;-6.284;2023-10-09T07:06:57;11.20;;;4.82;;
42632;SDS011;28261;53.304;-6.284;2023-10-09T07:09:01;13.30;;;4.80;;
42632;SDS011;28261;53.304;-6.284;2023-10-09T07:11:18;12.38;;;5.80;;
42632;SDS011;28261;53.304;-6.284;2023-10-09T07:13:44;8.60;;;5.00;;
42632;SDS011;28261;53.304;-6.284;2023-10-09T07:15:56;9.05;;;5.00;;
42632;SDS011;28261;53.304;-6.284;2023-10-09T07:18:19;10.40;;;5.20;;
42632;SDS011;28261;53.304;-6.284;2023-10-09T07:20:25;8.90;;;4.88;;
42632;SDS011;28261;53.304;-6.284;2023-10-09T07:22:47;10.55;;;5.30;;
42632;SDS011;28261;53.304;-6.284;2023-10-09T07:25:19;8.43;;;5.30;;
42632;SDS011;28261;53.304;-6.284;2023-10-09T07:27:38;13.57;;;5.30;;
42632;SDS011;28261;53.304;-6.284;2023-10-09T07:29:46;12.18;;;5.43;;
42632;SDS011;28261;53.304;-6.284;2023-10-09T07:31:53;10.93;;;5.53;;
42632;SDS011;28261;53.304;-6.284;2023-10-09T07:34:14;14.65;;;6.47;;
42632;SDS011;28261;53.304;-6.284;2023-10-09T07:36:50;13.93;;;6.47;;
42632;SDS011;28261;53.304;-6.284;2023-10-09T07:38:58;10.77;;;5.45;;
42632;SDS011;28261;53.304;-6.284;2023-10-09T07:41:03;11.30;;;6.07;;
42632;SDS011;28261;53.304;-6.284;2023-10-09T07:43:21;13.30;;;5.85;;
42632;SDS011;28261;53.304;-6.284;2023-10-09T07:45:29;14.45;;;6.90;;
42632;SDS011;28261;53.304;-6.284;2023-10-09T07:48:19;16.73;;;7.30;;
42632;SDS011;28261;53.304;-6.284;2023-10-09T07:50:28;15.55;;;7.10;;
42632;SDS011;28261;53.304;-6.284;2023-10-09T07:52:40;14.57;;;7.55;;
42632;SDS011;28261;53.304;-6.284;2023-10-09T07:54:48;15.25;;;7.07;;
42632;SDS011;28261;53.304;-6.284;2023-10-09T07:57:04;12.85;;;6.20;;
42632;SDS011;28261;53.304;-6.284;2023-10-09T07:59:18;11.55;;;6.82;;
42632;SDS011;28261;53.304;-6.284;2023-10-09T08:01:25;14.82;;;6.82;;
42632;SDS011;28261;53.304;-6.284;2023-10-09T08:03:40;16.92;;;7.28;;
42632;SDS011;28261;53.304;-6.284;2023-10-09T08:05:51;14.00;;;7.40;;
42632;SDS011;28261;53.304;-6.284;2023-10-09T08:08:09;11.93;;;6.50;;
42632;SDS011;28261;53.304;-6.284;2023-10-09T08:10:41;14.90;;;7.07;;
42632;SDS011;28261;53.304;-6.284;2023-10-09T08:13:02;13.70;;;6.53;;
42632;SDS011;28261;53.304;-6.284;2023-10-09T08:15:29;13.75;;;6.50;;
42632;SDS011;28261;53.304;-6.284;2023-10-09T08:17:54;15.82;;;6.00;;
42632;SDS011;28261;53.304;-6.284;2023-10-09T08:20:03;12.77;;;6.05;;
42632;SDS011;28261;53.304;-6.284;2023-10-09T08:22:14;16.08;;;6.60;;
42632;SDS011;28261;53.304;-6.284;2023-10-09T08:24:40;13.80;;;5.88;;
42632;SDS011;28261;53.304;-6.284;2023-10-09T08:26:44;15.07;;;6.70;;
42632;SDS011;28261;53.304;-6.284;2023-10-09T08:28:53;21.75;;;11.25;;
42632;SDS011;28261;53.304;-6.284;2023-10-09T08:30:56;20.20;;;9.13;;
42632;SDS011;28261;53.304;-6.284;2023-10-09T08:33:21;12.02;;;5.53;;
42632;SDS011;28261;53.304;-6.284;2023-10-09T08:35:47;11.00;;;5.30;;
42632;SDS011;28261;53.304;-6.284;2023-10-09T08:37:50;11.45;;;5.25;;
42632;SDS011;28261;53.304;-6.284;2023-10-09T08:39:54;9.50;;;5.15;;
42632;SDS011;28261;53.304;-6.284;2023-10-09T08:41:59;11.25;;;5.68;;
42632;SDS011;28261;53.304;-6.284;2023-10-09T08:44:06;9.57;;;5.28;;
42632;SDS011;28261;53.304;-6.284;2023-10-09T08:46:10;15.20;;;8.50;;
42632;SDS011;28261;53.304;-6.284;2023-10-09T08:48:15;11.13;;;6.40;;
42632;SDS011;28261;53.304;-6.284;2023-10-09T08:50:20;9.20;;;5.35;;
42632;SDS011;28261;53.304;-6.284;2023-10-09T08:52:26;11.52;;;5.22;;
42632;SDS011;28261;53.304;-6.284;2023-10-09T08:54:30;12.95;;;6.50;;
42632;SDS011;28261;53.304;-6.284;2023-10-09T08:56:35;12.00;;;5.75;;
42632;SDS011;28261;53.304;-6.284;2023-10-09T08:58:41;10.85;;;5.70;;
42632;SDS011;28261;53.304;-6.284;2023-10-09T09:00:45;9.70;;;5.50;;
42632;SDS011;28261;53.304;-6.284;2023-10-09T09:02:50;12.52;;;6.43;;
42632;SDS011;28261;53.304;-6.284;2023-10-09T09:04:56;12.75;;;6.47;;
42632;SDS011;28261;53.304;-6.284;2023-10-09T09:07:00;15.35;;;7.05;;
42632;SDS011;28261;53.304;-6.284;2023-10-09T09:09:11;9.82;;;6.22;;
42632;SDS011;28261;53.304;-6.284;2023-10-09T09:11:19;9.95;;;5.88;;
42632;SDS011;28261;53.304;-6.284;2023-10-09T09:13:25;11.43;;;5.47;;
42632;SDS011;28261;53.304;-6.284;2023-10-09T09:15:33;10.60;;;5.55;;
42632;SDS011;28261;53.304;-6.284;2023-10-09T09:17:42;13.45;;;6.30;;
42632;SDS011;28261;53.304;-6.284;2023-10-09T09:19:47;11.23;;;6.63;;
42632;SDS011;28261;53.304;-6.284;2023-10-09T09:21:57;17.45;;;5.95;;
42632;SDS011;28261;53.304;-6.284;2023-10-09T09:24:14;13.23;;;5.75;;
42632;SDS011;28261;53.304;-6.284;2023-10-09T09:26:35;10.55;;;5.35;;
42632;SDS011;28261;53.304;-6.284;2023-10-09T09:28:51;12.15;;;5.53;;
42632;SDS011;28261;53.304;-6.284;2023-10-09T09:30:59;15.43;;;5.88;;
42632;SDS011;28261;53.304;-6.284;2023-10-09T09:33:19;12.40;;;6.35;;
42632;SDS011;28261;53.304;-6.284;2023-10-09T09:35:28;11.82;;;5.70;;
42632;SDS011;28261;53.304;-6.284;2023-10-09T09:37:33;12.43;;;6.38;;
42632;SDS011;28261;53.304;-6.284;2023-10-09T09:39:50;10.63;;;6.40;;
42632;SDS011;28261;53.304;-6.284;2023-10-09T09:41:59;14.45;;;6.15;;
42632;SDS011;28261;53.304;-6.284;2023-10-09T09:44:09;14.95;;;6.78;;
42632;SDS011;28261;53.304;-6.284;2023-10-09T09:46:19;11.45;;;6.25;;
42632;SDS011;28261;53.304;-6.284;2023-10-09T09:48:25;11.80;;;5.70;;
42632;SDS011;28261;53.304;-6.284;2023-10-09T09:50:30;12.35;;;5.90;;
42632;SDS011;28261;53.304;-6.284;2023-10-09T09:52:34;11.18;;;6.28;;
42632;SDS011;28261;53.304;-6.284;2023-10-09T09:54:41;11.60;;;6.35;;
42632;SDS011;28261;53.304;-6.284;2023-10-09T09:56:47;11.13;;;5.57;;
42632;SDS011;28261;53.304;-6.284;2023-10-09T09:58:53;11.23;;;6.95;;
42632;SDS011;28261;53.304;-6.284;2023-10-09T10:01:01;12.40;;;6.18;;
42632;SDS011;28261;53.304;-6.284;2023-10-09T10:03:19;11.93;;;6.63;;
42632;SDS011;28261;53.304;-6.284;2023-10-09T10:05:27;12.07;;;6.53;;
42632;SDS011;28261;53.304;-6.284;2023-10-09T10:07:34;14.82;;;6.75;;
42632;SDS011;28261;53.304;-6.284;2023-10-09T10:09:46;26.70;;;8.68;;
42632;SDS011;28261;53.304;-6.284;2023-10-09T10:11:58;11.88;;;6.43;;
42632;SDS011;28261;53.304;-6.284;2023-10-09T10:14:06;10.80;;;6.15;;
42632;SDS011;28261;53.304;-6.284;2023-10-09T10:16:14;12.18;;;6.57;;
42632;SDS011;28261;53.304;-6.284;2023-10-09T10:18:23;10.32;;;6.47;;
42632;SDS011;28261;53.304;-6.284;2023-10-09T10:20:26;11.10;;;6.13;;
42632;SDS011;28261;53.304;-6.284;2023-10-09T10:22:33;10.20;;;6.22;;
42632;SDS011;28261;53.304;-6.284;2023-10-09T10:24:42;13.73;;;6.65;;
42632;SDS011;28261;53.304;-6.284;2023-10-09T10:29:26;10.95;;;5.65;;
42632;SDS011;28261;53.304;-6.284;2023-10-09T10:31:51;11.73;;;6.40;;
42632;SDS011;28261;53.304;-6.284;2023-10-09T10:34:03;10.13;;;5.68;;
42632;SDS011;28261;53.304;-6.284;2023-10-09T10:36:12;11.25;;;5.90;;
42632;SDS011;28261;53.304;-6.284;2023-10-09T10:38:27;10.68;;;5.88;;
42632;SDS011;28261;53.304;-6.284;2023-10-09T10:40:36;9.80;;;6.10;;
42632;SDS011;28261;53.304;-6.284;2023-10-09T10:42:49;10.18;;;5.80;;
42632;SDS011;28261;53.304;-6.284;2023-10-09T10:45:17;9.65;;;5.80;;
42632;SDS011;28261;53.304;-6.284;2023-10-09T10:47:37;9.35;;;5.70;;
42632;SDS011;28261;53.304;-6.284;2023-10-09T10:49:43;11.18;;;5.93;;
42632;SDS011;28261;53.304;-6.284;2023-10-09T10:51:51;12.73;;;6.75;;
42632;SDS011;28261;53.304;-6.284;2023-10-09T10:54:05;12.35;;;6.53;;
42632;SDS011;28261;53.304;-6.284;2023-10-09T10:56:27;9.15;;;5.13;;
42632;SDS011;28261;53.304;-6.284;2023-10-09T10:58:39;9.05;;;5.50;;
42632;SDS011;28261;53.304;-6.284;2023-10-09T11:00:55;10.55;;;5.10;;
42632;SDS011;28261;53.304;-6.284;2023-10-09T11:03:18;8.88;;;5.47;;
42632;SDS011;28261;53.304;-6.284;2023-10-09T11:05:26;9.63;;;5.13;;
42632;SDS011;28261;53.304;-6.284;2023-10-09T11:07:40;9.40;;;5.68;;
42632;SDS011;28261;53.304;-6.284;2023-10-09T11:09:46;8.07;;;4.90;;
42632;SDS011;28261;53.304;-6.284;2023-10-09T11:12:09;10.25;;;5.65;;
42632;SDS011;28261;53.304;-6.284;2023-10-09T11:14:16;9.68;;;5.40;;
42632;SDS011;28261;53.304;-6.284;2023-10-09T11:16:25;7.45;;;4.57;;
42632;SDS011;28261;53.304;-6.284;2023-10-09T11:18:44;9.55;;;5.15;;
42632;SDS011;28261;53.304;-6.284;2023-10-09T11:23:16;8.57;;;4.53;;
42632;SDS011;28261;53.304;-6.284;2023-10-09T11:25:20;11.40;;;5.72;;
42632;SDS011;28261;53.304;-6.284;2023-10-09T11:27:23;7.63;;;4.75;;
42632;SDS011;28261;53.304;-6.284;2023-10-09T11:29:36;7.85;;;4.60;;
42632;SDS011;28261;53.304;-6.284;2023-10-09T11:32:07;8.45;;;5.00;;
42632;SDS011;28261;53.304;-6.284;2023-10-09T11:34:19;8.98;;;4.90;;
42632;SDS011;28261;53.304;-6.284;2023-10-09T11:36:33;7.15;;;4.75;;
42632;SDS011;28261;53.304;-6.284;2023-10-09T11:38:36;7.90;;;4.25;;
42632;SDS011;28261;53.304;-6.284;2023-10-09T11:40:41;7.15;;;4.35;;
42632;SDS011;28261;53.304;-6.284;2023-10-09T11:43:05;8.90;;;5.40;;
42632;SDS011;28261;53.304;-6.284;2023-10-09T11:45:21;8.57;;;4.63;;
42632;SDS011;28261;53.304;-6.284;2023-10-09T11:47:33;7.75;;;4.70;;
42632;SDS011;28261;53.304;-6.284;2023-10-09T11:49:46;6.10;;;4.40;;
42632;SDS011;28261;53.304;-6.284;2023-10-09T11:52:07;7.60;;;4.55;;
42632;SDS011;28261;53.304;-6.284;2023-10-09T11:54:29;8.43;;;4.28;;
42632;SDS011;28261;53.304;-6.284;2023-10-09T11:56:33;9.93;;;4.70;;
42632;SDS011;28261;53.304;-6.284;2023-10-09T11:58:37;6.47;;;4.35;;
42632;SDS011;28261;53.304;-6.284;2023-10-09T12:00:44;8.55;;;4.72;;
42632;SDS011;28261;53.304;-6.284;2023-10-09T12:02:48;9.32;;;4.25;;
42632;SDS011;28261;53.304;-6.284;2023-10-09T12:04:52;8.93;;;4.25;;
42632;SDS011;28261;53.304;-6.284;2023-10-09T12:06:58;7.03;;;3.97;;
42632;SDS011;28261;53.304;-6.284;2023-10-09T12:09:09;7.78;;;4.07;;
42632;SDS011;28261;53.304;-6.284;2023-10-09T12:11:26;9.70;;;4.80;;
42632;SDS011;28261;53.304;-6.284;2023-10-09T12:13:32;7.35;;;4.80;;
42632;SDS011;28261;53.304;-6.284;2023-10-09T12:15:37;9.57;;;4.45;;
42632;SDS011;28261;53.304;-6.284;2023-10-09T12:17:42;6.63;;;4.57;;
42632;SDS011;28261;53.304;-6.284;2023-10-09T12:19:46;7.40;;;4.22;;
42632;SDS011;28261;53.304;-6.284;2023-10-09T12:21:53;10.25;;;4.53;;
42632;SDS011;28261;53.304;-6.284;2023-10-09T12:23:57;10.85;;;4.22;;
42632;SDS011;28261;53.304;-6.284;2023-10-09T12:26:03;11.93;;;4.40;;
42632;SDS011;28261;53.304;-6.284;2023-10-09T12:30:14;9.02;;;4.07;;
42632;SDS011;28261;53.304;-6.284;2023-10-09T12:32:18;8.55;;;4.07;;
42632;SDS011;28261;53.304;-6.284;2023-10-09T12:34:24;8.43;;;4.90;;
42632;SDS011;28261;53.304;-6.284;2023-10-09T12:36:29;10.45;;;5.25;;
42632;SDS011;28261;53.304;-6.284;2023-10-09T12:38:39;11.20;;;5.13;;
42632;SDS011;28261;53.304;-6.284;2023-10-09T12:40:48;9.30;;;5.00;;
42632;SDS011;28261;53.304;-6.284;2023-10-09T12:42:54;8.45;;;4.97;;
42632;SDS011;28261;53.304;-6.284;2023-10-09T12:45:01;8.98;;;4.97;;
42632;SDS011;28261;53.304;-6.284;2023-10-09T12:47:10;8.20;;;4.68;;
42632;SDS011;28261;53.304;-6.284;2023-10-09T12:49:14;8.73;;;4.55;;
42632;SDS011;28261;53.304;-6.284;2023-10-09T12:51:19;7.85;;;4.82;;
42632;SDS011;28261;53.304;-6.284;2023-10-09T12:53:27;9.40;;;4.10;;
42632;SDS011;28261;53.304;-6.284;2023-10-09T12:55:34;9.10;;;4.07;;
42632;SDS011;28261;53.304;-6.284;2023-10-09T12:57:42;6.97;;;4.28;;
42632;SDS011;28261;53.304;-6.284;2023-10-09T12:59:46;7.50;;;4.03;;
42632;SDS011;28261;53.304;-6.284;2023-10-09T13:01:51;6.38;;;4.00;;
42632;SDS011;28261;53.304;-6.284;2023-10-09T13:04:00;7.53;;;4.05;;
42632;SDS011;28261;53.304;-6.284;2023-10-09T13:06:04;5.80;;;4.00;;
42632;SDS011;28261;53.304;-6.284;2023-10-09T13:08:13;5.65;;;3.75;;